首页
METAR-TAF:

METAR-TAF

机场 :

美里機場

美里, 马来西亚

纬度: 04-20N, 经度: 113-59E, 海拔: 17米

当前天气观测

该预报发布于14分钟前的17:00 UTC
风速3节,风向
温度 25°C
湿度 100%
气压 1010 hPa
能见度10公里或以上
散云层高于1600英尺
多云层高于15000英尺

METAR: WBGR 121700Z 18003KT 9999 SCT016 BKN150 25/25 Q1010

时间: 01:14 (17:14 UTC)

预报

该预报发布于6小时和14分钟前的11:00 UTC
预报有效从12日的 12点(UTC)到 13日的 12点(UTC)
风速5节,风向西转西北
能见度10公里或以上
散云层高于1900英尺
短暂存在
从 13日的 06点(UTC)到 13日的 09点(UTC)
少量云层高于1500英尺, 积雨云.
阵雨

TAF: WBGR 121100Z 1212/1312 29005KT 9999 SCT019 TEMPO 1306/1309 SHRA FEW015CB

超过4000个机场的气象观测和天气预报(METAR&TAF报告)。

可查询的气象台以黄色和红色小点在地图上表示。

将鼠标移到小点上方,可查看气象台名称。

然后点击查看天气观测和预报。

如需切换地图:点击带黑十字的绿色按钮放大地图;点击带横线的绿色按钮缩小地图;或者点击绿色箭头查看邻近地区的地图。


METAR-TAF: